createdAt,value
2022-09-27T00:00:02.631Z,0.00
2022-09-27T00:01:02.651Z,0.00
2022-09-27T00:02:02.671Z,0.00
2022-09-27T00:03:02.635Z,0.00
2022-09-27T00:04:02.567Z,0.00
2022-09-27T00:05:02.557Z,0.00
2022-09-27T00:06:02.546Z,0.00
2022-09-27T00:07:02.539Z,0.00
2022-09-27T00:08:02.547Z,0.00
2022-09-27T00:09:02.517Z,0.00
2022-09-27T00:10:02.497Z,0.00
2022-09-27T00:11:02.487Z,0.00
2022-09-27T00:12:02.477Z,0.00
2022-09-27T00:13:02.469Z,0.00
2022-09-27T00:14:02.480Z,0.00
2022-09-27T00:15:03.215Z,0.00
2022-09-27T00:16:02.459Z,0.00
2022-09-27T00:17:02.425Z,0.00
2022-09-27T00:18:02.408Z,0.00
2022-09-27T00:19:02.397Z,0.00
2022-09-27T00:20:02.407Z,0.00
2022-09-27T00:21:02.377Z,0.00
2022-09-27T00:22:02.361Z,0.00
2022-09-27T00:23:02.357Z,0.00
2022-09-27T00:24:02.337Z,0.00
2022-09-27T00:25:02.326Z,0.00
2022-09-27T00:26:02.397Z,0.00
2022-09-27T00:27:02.306Z,0.00
2022-09-27T00:28:02.298Z,0.00
2022-09-27T00:29:02.286Z,0.00
2022-09-27T00:30:02.281Z,0.00
2022-09-27T00:31:02.352Z,0.00
2022-09-27T00:32:02.271Z,0.00
2022-09-27T00:33:02.238Z,0.00
2022-09-27T00:34:02.226Z,0.00
2022-09-27T00:35:02.223Z,0.00
2022-09-27T00:36:02.201Z,0.00
2022-09-27T00:37:02.215Z,0.00
2022-09-27T00:38:02.177Z,0.00
2022-09-27T00:39:02.168Z,0.00
2022-09-27T00:40:02.159Z,0.00
2022-09-27T00:41:02.219Z,0.00
2022-09-27T00:42:02.137Z,0.00
2022-09-27T00:43:02.151Z,0.00
2022-09-27T00:44:02.107Z,0.00
2022-09-27T00:45:02.097Z,0.00
2022-09-27T00:46:02.144Z,0.00
2022-09-27T00:47:02.081Z,0.00
2022-09-27T00:48:02.070Z,0.00
2022-09-27T00:49:02.077Z,0.00
2022-09-27T00:50:02.049Z,0.00
2022-09-27T00:51:02.037Z,0.00
2022-09-27T00:52:02.018Z,0.00
2022-09-27T00:53:02.009Z,0.00
2022-09-27T00:54:01.996Z,0.00
2022-09-27T00:55:02.007Z,0.00
2022-09-27T00:56:01.968Z,0.00
2022-09-27T00:57:01.967Z,0.00
2022-09-27T00:58:01.952Z,0.00
2022-09-27T00:59:01.945Z,0.00
2022-09-27T01:00:01.981Z,0.00
2022-09-27T01:01:02.226Z,0.00
2022-09-27T01:02:01.905Z,0.00
2022-09-27T01:03:01.943Z,0.00
2022-09-27T01:04:01.878Z,0.00
2022-09-27T01:05:01.869Z,0.00
2022-09-27T01:06:01.862Z,0.00
2022-09-27T01:07:01.867Z,0.00
2022-09-27T01:08:01.828Z,0.00
2022-09-27T01:09:01.833Z,0.00
2022-09-27T01:10:01.811Z,0.00
2022-09-27T01:11:01.807Z,0.00
2022-09-27T01:12:01.809Z,0.00
2022-09-27T01:13:01.777Z,0.00
2022-09-27T01:14:01.769Z,0.00
2022-09-27T01:15:01.757Z,0.00
2022-09-27T01:16:01.794Z,0.00
2022-09-27T01:17:01.737Z,0.00
2022-09-27T01:18:01.742Z,0.00
2022-09-27T01:19:01.708Z,0.00
2022-09-27T01:20:01.697Z,0.00
2022-09-27T01:21:01.688Z,0.00
2022-09-27T01:22:01.677Z,0.00
2022-09-27T01:23:01.668Z,0.00
2022-09-27T01:24:01.669Z,0.00
2022-09-27T01:25:01.647Z,0.00
2022-09-27T01:26:01.629Z,0.00
2022-09-27T01:27:01.619Z,0.00
2022-09-27T01:28:01.608Z,0.00
2022-09-27T01:29:01.597Z,0.00
2022-09-27T01:30:01.599Z,0.00
2022-09-27T01:31:01.637Z,0.00
2022-09-27T01:32:01.560Z,0.00
2022-09-27T01:33:01.556Z,0.00
2022-09-27T01:34:01.541Z,0.00
2022-09-27T01:35:01.549Z,0.00
2022-09-27T01:36:01.517Z,0.00
2022-09-27T01:37:01.506Z,0.00
2022-09-27T01:38:01.487Z,0.00
2022-09-27T01:39:01.478Z,0.00
2022-09-27T01:40:01.471Z,0.00
2022-09-27T01:41:01.602Z,0.00
2022-09-27T01:42:01.439Z,0.00
2022-09-27T01:43:01.437Z,0.00
2022-09-27T01:44:01.420Z,0.00
2022-09-27T01:45:01.408Z,0.00
2022-09-27T01:46:01.481Z,0.00
2022-09-27T01:47:01.388Z,0.00
2022-09-27T01:48:01.372Z,0.00
2022-09-27T01:49:01.367Z,0.00
2022-09-27T01:50:01.347Z,0.00
2022-09-27T01:51:01.346Z,0.00
2022-09-27T01:52:01.348Z,0.00
2022-09-27T01:53:01.329Z,0.00
2022-09-27T01:54:01.311Z,0.00
2022-09-27T01:55:01.300Z,0.00
2022-09-27T01:56:01.277Z,0.00
2022-09-27T01:57:01.269Z,0.00
2022-09-27T01:58:01.278Z,0.00
2022-09-27T01:59:01.247Z,0.00
2022-09-27T02:00:01.238Z,0.00
2022-09-27T02:01:01.265Z,0.00
2022-09-27T02:02:01.218Z,0.00
2022-09-27T02:03:01.287Z,0.00
2022-09-27T02:04:01.198Z,0.00
2022-09-27T02:05:01.186Z,0.00
2022-09-27T02:06:01.168Z,0.00
2022-09-27T02:07:01.158Z,0.00
2022-09-27T02:08:01.147Z,0.00
2022-09-27T02:09:01.168Z,0.00
2022-09-27T02:10:01.166Z,0.00
2022-09-27T02:11:01.118Z,0.00
2022-09-27T02:12:01.099Z,0.00
2022-09-27T02:13:01.091Z,0.00
2022-09-27T02:14:01.079Z,0.00
2022-09-27T02:15:01.101Z,0.00
2022-09-27T02:16:01.099Z,0.00
2022-09-27T02:17:01.046Z,0.00
2022-09-27T02:18:01.031Z,0.00
2022-09-27T02:19:01.018Z,0.00
2022-09-27T02:20:01.010Z,0.00
2022-09-27T02:21:01.034Z,0.00
2022-09-27T02:22:00.989Z,0.00
2022-09-27T02:23:00.977Z,0.00
2022-09-27T02:24:00.966Z,0.00
2022-09-27T02:25:00.957Z,0.00
2022-09-27T02:26:00.948Z,0.00
2022-09-27T02:27:00.950Z,0.00
2022-09-27T02:28:00.918Z,0.00
2022-09-27T02:29:00.908Z,0.00
2022-09-27T02:30:00.898Z,0.00
2022-09-27T02:31:00.960Z,0.00
2022-09-27T02:32:00.880Z,0.00
2022-09-27T02:33:00.882Z,0.00
2022-09-27T02:34:00.859Z,0.00
2022-09-27T02:35:00.838Z,0.00
2022-09-27T02:36:00.831Z,0.00
2022-09-27T02:37:00.817Z,0.00
2022-09-27T02:38:00.808Z,0.00
2022-09-27T02:39:00.812Z,0.00
2022-09-27T02:40:00.782Z,0.00
2022-09-27T02:41:00.829Z,0.00
2022-09-27T02:42:00.760Z,0.00
2022-09-27T02:43:00.753Z,0.00
2022-09-27T02:44:00.740Z,0.00
2022-09-27T02:45:00.739Z,0.00
2022-09-27T02:46:00.782Z,0.00
2022-09-27T02:47:00.699Z,0.00
2022-09-27T02:48:00.689Z,0.00
2022-09-27T02:49:00.675Z,0.00
2022-09-27T02:50:00.690Z,0.00
2022-09-27T02:51:00.657Z,0.00
2022-09-27T02:52:00.647Z,0.00
2022-09-27T02:53:00.629Z,0.00
2022-09-27T02:54:00.628Z,0.00
2022-09-27T02:55:00.607Z,0.00
2022-09-27T02:56:00.618Z,0.00
2022-09-27T02:57:00.588Z,0.00
2022-09-27T02:58:00.590Z,0.00
2022-09-27T02:59:00.570Z,0.00
2022-09-27T03:00:00.565Z,0.00
2022-09-27T03:01:00.580Z,0.00
2022-09-27T03:02:00.749Z,0.00
2022-09-27T03:03:00.557Z,0.00
2022-09-27T03:04:00.509Z,0.00
2022-09-27T03:05:00.490Z,0.00
2022-09-27T03:06:00.490Z,0.00
2022-09-27T03:07:00.521Z,0.00
2022-09-27T03:08:00.460Z,0.00
2022-09-27T03:09:00.458Z,0.00
2022-09-27T03:10:07.484Z,0.00
2022-09-27T03:11:00.424Z,0.00
2022-09-27T03:12:00.416Z,0.00
2022-09-27T03:13:00.424Z,0.00
2022-09-27T03:14:09.158Z,0.00
2022-09-27T03:15:01.394Z,0.00
2022-09-27T03:16:01.701Z,0.00
2022-09-27T03:17:00.481Z,0.00
2022-09-27T03:18:00.346Z,0.00
2022-09-27T03:19:00.365Z,0.00
2022-09-27T03:20:00.330Z,0.00
2022-09-27T03:21:00.322Z,0.00
2022-09-27T03:22:00.313Z,0.00
2022-09-27T03:23:00.288Z,0.00
2022-09-27T03:24:00.296Z,0.00
2022-09-27T03:25:00.312Z,0.00
2022-09-27T03:26:00.261Z,0.00
2022-09-27T03:27:00.245Z,0.00
2022-09-27T03:28:00.235Z,0.00
2022-09-27T03:29:00.225Z,0.00
2022-09-27T03:30:00.222Z,0.00
2022-09-27T03:31:00.283Z,0.00
2022-09-27T03:32:00.227Z,0.00
2022-09-27T03:33:00.245Z,0.00
2022-09-27T03:34:00.165Z,0.00
2022-09-27T03:35:00.155Z,0.00
2022-09-27T03:36:00.145Z,0.00
2022-09-27T03:37:00.157Z,0.00
2022-09-27T03:38:00.115Z,0.00
2022-09-27T03:39:00.114Z,0.00
2022-09-27T03:40:00.138Z,0.00
2022-09-27T03:41:00.900Z,0.00
2022-09-27T03:42:00.097Z,0.00
2022-09-27T03:43:00.094Z,0.00
2022-09-27T03:44:00.069Z,0.00
2022-09-27T03:45:00.034Z,0.00
2022-09-27T03:46:00.086Z,0.00
2022-09-27T03:47:00.020Z,0.00
2022-09-27T03:48:00.007Z,0.00
2022-09-27T03:49:00.015Z,0.00
2022-09-27T03:49:59.985Z,0.00
2022-09-27T03:50:59.990Z,0.00
2022-09-27T03:51:59.976Z,0.00
2022-09-27T03:52:59.949Z,0.00
2022-09-27T03:53:59.936Z,0.00
2022-09-27T03:55:02.135Z,0.00
2022-09-27T03:55:59.921Z,0.00
2022-09-27T03:56:59.898Z,0.00
2022-09-27T03:57:59.893Z,0.00
2022-09-27T03:58:59.885Z,0.00
2022-09-27T03:59:59.898Z,0.00
2022-09-27T04:00:59.899Z,0.00
2022-09-27T04:01:59.849Z,0.00
2022-09-27T04:02:59.908Z,0.00
2022-09-27T04:03:59.835Z,0.00
2022-09-27T04:04:59.809Z,0.00
2022-09-27T04:05:59.816Z,0.00
2022-09-27T04:06:59.785Z,0.00
2022-09-27T04:07:59.776Z,0.00
2022-09-27T04:08:59.757Z,0.00
2022-09-27T04:09:59.755Z,0.00
2022-09-27T04:10:59.743Z,0.00
2022-09-27T04:11:59.747Z,0.00
2022-09-27T04:12:59.725Z,0.00
2022-09-27T04:13:59.708Z,0.00
2022-09-27T04:14:59.716Z,0.00
2022-09-27T04:15:59.714Z,0.00
2022-09-27T04:16:59.751Z,0.00
2022-09-27T04:17:59.668Z,0.00
2022-09-27T04:18:59.649Z,0.00
2022-09-27T04:19:59.634Z,0.00
2022-09-27T04:20:59.627Z,0.00
2022-09-27T04:21:59.614Z,0.00
2022-09-27T04:22:59.623Z,0.00
2022-09-27T04:23:59.595Z,0.00
2022-09-27T04:24:59.575Z,0.00
2022-09-27T04:25:59.565Z,0.00
2022-09-27T04:26:59.554Z,0.00
2022-09-27T04:27:59.545Z,0.00
2022-09-27T04:28:59.554Z,0.00
2022-09-27T04:29:59.525Z,0.00
2022-09-27T04:30:59.586Z,0.00
2022-09-27T04:31:59.505Z,0.00
2022-09-27T04:32:59.485Z,0.00
2022-09-27T04:33:59.476Z,0.00
2022-09-27T04:34:59.485Z,0.00
2022-09-27T04:35:59.455Z,0.00
2022-09-27T04:36:59.435Z,0.00
2022-09-27T04:37:59.435Z,0.00
2022-09-27T04:38:59.415Z,0.00
2022-09-27T04:39:59.407Z,0.00
2022-09-27T04:40:59.473Z,0.00
2022-09-27T04:41:59.386Z,0.00
2022-09-27T04:42:59.366Z,0.00
2022-09-27T04:43:59.635Z,0.00
2022-09-27T04:44:59.345Z,0.00
2022-09-27T04:45:59.375Z,0.00
2022-09-27T04:46:59.370Z,0.00
2022-09-27T04:47:59.315Z,0.00
2022-09-27T04:48:59.314Z,0.00
2022-09-27T04:49:59.295Z,0.00
2022-09-27T04:50:59.285Z,0.00
2022-09-27T04:51:59.273Z,0.00
2022-09-27T04:52:59.276Z,0.00
2022-09-27T04:53:59.245Z,0.00
2022-09-27T04:54:59.233Z,0.00
2022-09-27T04:55:59.225Z,0.00
2022-09-27T04:56:59.206Z,0.00
2022-09-27T04:57:59.215Z,0.00
2022-09-27T04:58:59.206Z,0.00
2022-09-27T04:59:59.194Z,0.00
2022-09-27T05:00:59.214Z,0.00
2022-09-27T05:01:59.155Z,0.00
2022-09-27T05:02:59.209Z,0.00
2022-09-27T05:03:59.135Z,0.00
2022-09-27T05:04:59.135Z,0.00
2022-09-27T05:05:59.105Z,0.00
2022-09-27T05:06:59.085Z,0.00
2022-09-27T05:07:59.085Z,0.00
2022-09-27T05:08:59.075Z,0.00
2022-09-27T05:09:59.064Z,0.00
2022-09-27T05:10:59.068Z,0.00
2022-09-27T05:11:59.036Z,0.00
2022-09-27T05:12:59.025Z,0.00
2022-09-27T05:13:59.015Z,0.00
2022-09-27T05:14:59.008Z,0.00
2022-09-27T05:15:59.065Z,0.00
2022-09-27T05:16:59.046Z,0.00
2022-09-27T05:17:58.986Z,0.00
2022-09-27T05:18:58.954Z,0.00
2022-09-27T05:19:58.945Z,5.62
2022-09-27T05:20:58.937Z,5.62
2022-09-27T05:21:58.930Z,5.62
2022-09-27T05:22:58.923Z,5.62
2022-09-27T05:23:58.904Z,5.62
2022-09-27T05:24:58.887Z,5.62
2022-09-27T05:25:58.876Z,5.62
2022-09-27T05:26:58.865Z,11.25
2022-09-27T05:27:58.876Z,11.25
2022-09-27T05:28:58.843Z,11.25
2022-09-27T05:29:58.835Z,11.25
2022-09-27T05:30:58.843Z,11.25
2022-09-27T05:31:58.805Z,11.25
2022-09-27T05:32:58.798Z,11.25
2022-09-27T05:33:58.804Z,11.25
2022-09-27T05:34:58.774Z,11.25
2022-09-27T05:35:58.765Z,11.25
2022-09-27T05:36:58.764Z,16.88
2022-09-27T05:37:58.748Z,16.88
2022-09-27T05:38:58.755Z,22.50
2022-09-27T05:39:58.725Z,22.50
2022-09-27T05:40:58.754Z,28.12
2022-09-27T05:41:58.695Z,28.12
2022-09-27T05:42:58.675Z,28.12
2022-09-27T05:43:58.675Z,33.75
2022-09-27T05:44:58.676Z,33.75
2022-09-27T05:45:58.716Z,39.38
2022-09-27T05:46:58.635Z,39.38
2022-09-27T05:47:58.625Z,39.38
2022-09-27T05:48:58.634Z,45.00
2022-09-27T05:49:58.625Z,45.00
2022-09-27T05:50:58.629Z,45.00
2022-09-27T05:51:58.590Z,45.00
2022-09-27T05:52:58.599Z,45.00
2022-09-27T05:53:58.600Z,45.00
2022-09-27T05:54:58.545Z,45.00
2022-09-27T05:55:58.595Z,45.00
2022-09-27T05:56:58.545Z,45.00
2022-09-27T05:57:58.531Z,50.62
2022-09-27T05:58:58.496Z,50.62
2022-09-27T05:59:58.508Z,56.25
2022-09-27T06:00:58.475Z,56.25
2022-09-27T06:01:58.573Z,56.25
2022-09-27T06:02:58.566Z,56.25
2022-09-27T06:03:58.477Z,61.88
2022-09-27T06:04:58.434Z,61.88
2022-09-27T06:05:58.435Z,67.50
2022-09-27T06:06:58.418Z,78.75
2022-09-27T06:07:58.425Z,84.38
2022-09-27T06:09:58.419Z,78.75
2022-09-27T06:10:58.357Z,73.12
2022-09-27T06:11:58.385Z,73.12
2022-09-27T06:12:58.354Z,61.88
2022-09-27T06:13:58.365Z,50.62
2022-09-27T06:14:58.329Z,56.25
2022-09-27T06:15:58.309Z,61.88
2022-09-27T06:16:58.323Z,73.12
2022-09-27T06:17:58.315Z,78.75
2022-09-27T06:18:58.267Z,61.88
2022-09-27T06:19:58.321Z,50.62
2022-09-27T06:20:58.247Z,50.62
2022-09-27T06:21:58.245Z,56.25
2022-09-27T06:22:58.235Z,61.88
2022-09-27T06:23:58.227Z,67.50
2022-09-27T06:24:58.242Z,67.50
2022-09-27T06:25:58.205Z,73.12
2022-09-27T06:26:58.177Z,73.12
2022-09-27T06:27:58.190Z,90.00
2022-09-27T06:28:58.162Z,112.50
2022-09-27T06:29:58.155Z,123.75
2022-09-27T06:30:58.242Z,140.62
2022-09-27T06:31:58.151Z,151.88
2022-09-27T06:32:58.111Z,168.75
2022-09-27T06:33:58.106Z,185.62
2022-09-27T06:34:58.085Z,196.88
2022-09-27T06:35:58.107Z,202.50
2022-09-27T06:36:58.066Z,208.12
2022-09-27T06:37:58.046Z,208.12
2022-09-27T06:38:58.075Z,213.75
2022-09-27T06:39:58.054Z,213.75
2022-09-27T06:40:58.128Z,208.12
2022-09-27T06:41:58.038Z,208.12
2022-09-27T06:42:57.996Z,208.12
2022-09-27T06:43:58.020Z,208.12
2022-09-27T06:44:57.975Z,208.12
2022-09-27T06:45:58.040Z,202.50
2022-09-27T06:46:57.974Z,208.12
2022-09-27T06:47:57.956Z,208.12
2022-09-27T06:48:57.976Z,213.75
2022-09-27T06:49:57.934Z,219.38
2022-09-27T06:50:57.970Z,230.62
2022-09-27T06:51:57.916Z,230.62
2022-09-27T06:52:57.886Z,236.25
2022-09-27T06:53:57.903Z,236.25
2022-09-27T06:54:57.855Z,225.00
2022-09-27T06:55:57.846Z,208.12
2022-09-27T06:57:02.241Z,191.25
2022-09-27T06:57:57.824Z,174.38
2022-09-27T06:58:57.834Z,163.12
2022-09-27T06:59:57.853Z,157.50
2022-09-27T07:00:57.815Z,151.88
2022-09-27T07:01:57.840Z,157.50
2022-09-27T07:02:57.776Z,157.50
2022-09-27T07:03:57.756Z,157.50
2022-09-27T07:04:57.746Z,157.50
2022-09-27T07:05:58.024Z,151.88
2022-09-27T07:06:57.727Z,151.88
2022-09-27T07:07:57.732Z,146.25
2022-09-27T07:08:57.725Z,146.25
2022-09-27T07:09:57.683Z,151.88
2022-09-27T07:10:57.677Z,163.12
2022-09-27T07:11:57.700Z,168.75
2022-09-27T07:12:57.657Z,168.75
2022-09-27T07:13:57.637Z,168.75
2022-09-27T07:14:57.625Z,157.50
2022-09-27T07:15:57.606Z,151.88
2022-09-27T07:16:57.657Z,146.25
2022-09-27T07:17:57.639Z,140.62
2022-09-27T07:18:57.586Z,146.25
2022-09-27T07:19:57.715Z,151.88
2022-09-27T07:21:00.275Z,157.50
2022-09-27T07:21:57.546Z,151.88
2022-09-27T07:22:57.582Z,135.00
2022-09-27T07:23:57.578Z,123.75
2022-09-27T07:24:57.505Z,135.00
2022-09-27T07:25:57.497Z,140.62
2022-09-27T07:26:57.497Z,151.88
2022-09-27T07:27:57.505Z,163.12
2022-09-27T07:28:57.496Z,174.38
2022-09-27T07:29:57.458Z,185.62
2022-09-27T07:30:57.533Z,196.88
2022-09-27T07:31:57.426Z,219.38
2022-09-27T07:32:57.424Z,236.25
2022-09-27T07:33:57.429Z,264.38
2022-09-27T07:34:57.418Z,286.88
2022-09-27T07:35:57.387Z,315.00
2022-09-27T07:36:57.426Z,348.75
2022-09-27T07:37:57.391Z,382.50
2022-09-27T07:38:57.389Z,421.88
2022-09-27T07:39:57.368Z,450.00
2022-09-27T07:40:57.413Z,472.50
2022-09-27T07:41:57.378Z,478.12
2022-09-27T07:42:57.307Z,495.00
2022-09-27T07:43:57.300Z,506.25
2022-09-27T07:44:57.285Z,517.50
2022-09-27T07:45:57.312Z,517.50
2022-09-27T07:46:57.288Z,523.12
2022-09-27T07:47:57.246Z,528.75
2022-09-27T07:48:57.246Z,534.38
2022-09-27T07:49:57.233Z,540.00
2022-09-27T07:50:57.217Z,545.62
2022-09-27T07:51:57.199Z,540.00
2022-09-27T07:52:57.221Z,562.50
2022-09-27T07:53:57.178Z,613.12
2022-09-27T07:54:57.176Z,1046.25
2022-09-27T07:55:57.155Z,596.25
2022-09-27T07:56:57.146Z,585.00
2022-09-27T07:57:57.144Z,556.88
2022-09-27T07:58:57.186Z,545.62
2022-09-27T07:59:57.117Z,534.38
2022-09-27T08:00:57.177Z,511.88
2022-09-27T08:01:57.123Z,478.12
2022-09-27T08:02:57.076Z,438.75
2022-09-27T08:03:57.073Z,388.12
2022-09-27T08:04:57.067Z,354.38
2022-09-27T08:05:57.036Z,309.38
2022-09-27T08:06:57.037Z,292.50
2022-09-27T08:07:57.017Z,292.50
2022-09-27T08:08:57.047Z,315.00
2022-09-27T08:09:57.037Z,376.88
2022-09-27T08:10:56.989Z,421.88
2022-09-27T08:11:56.978Z,466.88
2022-09-27T08:12:57.001Z,523.12
2022-09-27T08:13:56.947Z,613.12
2022-09-27T08:14:56.948Z,624.38
2022-09-27T08:15:56.947Z,815.62
2022-09-27T08:16:56.915Z,697.50
2022-09-27T08:17:56.907Z,669.38
2022-09-27T08:18:56.909Z,641.25
2022-09-27T08:19:56.886Z,618.75
2022-09-27T08:20:56.867Z,607.50
2022-09-27T08:21:58.923Z,590.62
2022-09-27T08:22:56.881Z,579.38
2022-09-27T08:23:56.836Z,573.75
2022-09-27T08:24:56.843Z,568.12
2022-09-27T08:25:56.810Z,573.75
2022-09-27T08:26:56.799Z,562.50
2022-09-27T08:27:56.812Z,556.88
2022-09-27T08:28:56.802Z,393.75
2022-09-27T08:29:56.820Z,399.38
2022-09-27T08:30:56.762Z,478.12
2022-09-27T08:31:56.770Z,337.50
2022-09-27T08:32:56.745Z,365.62
2022-09-27T08:33:56.737Z,298.12
2022-09-27T08:34:56.723Z,275.62
2022-09-27T08:35:56.697Z,270.00
2022-09-27T08:36:56.690Z,230.62
2022-09-27T08:37:56.682Z,230.62
2022-09-27T08:38:56.690Z,219.38
2022-09-27T08:39:56.657Z,230.62
2022-09-27T08:40:56.669Z,213.75
2022-09-27T08:41:56.642Z,180.00
2022-09-27T08:42:56.623Z,174.38
2022-09-27T08:43:56.619Z,168.75
2022-09-27T08:45:00.959Z,146.25
2022-09-27T08:45:57.631Z,151.88
2022-09-27T08:46:56.569Z,151.88
2022-09-27T08:47:56.560Z,123.75
2022-09-27T08:48:56.550Z,118.12
2022-09-27T08:49:56.530Z,163.12
2022-09-27T08:50:56.553Z,241.88
2022-09-27T08:51:56.514Z,270.00
2022-09-27T08:52:57.110Z,225.00
2022-09-27T08:53:56.492Z,208.12
2022-09-27T08:54:56.521Z,180.00
2022-09-27T08:55:56.479Z,174.38
2022-09-27T08:56:56.470Z,264.38
2022-09-27T08:57:56.440Z,405.00
2022-09-27T08:58:56.459Z,438.75
2022-09-27T08:59:56.432Z,416.25
2022-09-27T09:00:56.438Z,540.00
2022-09-27T09:01:59.676Z,714.38
2022-09-27T09:02:56.389Z,787.50
2022-09-27T09:03:56.372Z,753.75
2022-09-27T09:04:56.368Z,720.00
2022-09-27T09:05:56.371Z,675.00
2022-09-27T09:06:56.341Z,635.62
2022-09-27T09:07:56.354Z,601.88
2022-09-27T09:08:56.320Z,641.25
2022-09-27T09:10:03.346Z,697.50
2022-09-27T09:10:56.456Z,725.62
2022-09-27T09:11:56.276Z,742.50
2022-09-27T09:12:56.265Z,753.75
2022-09-27T09:13:56.285Z,708.75
2022-09-27T09:14:56.246Z,804.38
2022-09-27T09:15:56.239Z,888.75
2022-09-27T09:16:56.226Z,956.25
2022-09-27T09:17:56.215Z,1001.25
2022-09-27T09:18:56.210Z,1035.00
2022-09-27T09:19:56.207Z,1096.88
2022-09-27T09:20:56.186Z,1153.12
2022-09-27T09:21:56.166Z,1198.12
2022-09-27T09:22:56.166Z,1220.62
2022-09-27T09:23:56.146Z,1203.75
2022-09-27T09:24:56.127Z,1181.25
2022-09-27T09:25:56.137Z,1147.50
2022-09-27T09:26:57.691Z,1108.12
2022-09-27T09:28:01.465Z,1080.00
2022-09-27T09:28:57.097Z,1046.25
2022-09-27T09:29:56.078Z,1001.25
2022-09-27T09:30:56.094Z,961.88
2022-09-27T09:31:56.103Z,894.38
2022-09-27T09:32:56.047Z,826.88
2022-09-27T09:33:56.018Z,759.38
2022-09-27T09:34:56.020Z,686.25
2022-09-27T09:35:56.008Z,658.12
2022-09-27T09:36:56.020Z,630.00
2022-09-27T09:37:55.978Z,646.88
2022-09-27T09:38:55.970Z,646.88
2022-09-27T09:39:55.966Z,641.25
2022-09-27T09:40:55.963Z,596.25
2022-09-27T09:41:55.936Z,573.75
2022-09-27T09:42:55.949Z,579.38
2022-09-27T09:43:55.911Z,579.38
2022-09-27T09:44:55.922Z,573.75
2022-09-27T09:45:55.906Z,562.50
2022-09-27T09:46:55.881Z,545.62
2022-09-27T09:47:55.869Z,534.38
2022-09-27T09:48:55.879Z,506.25
2022-09-27T09:49:55.840Z,511.88
2022-09-27T09:50:55.841Z,511.88
2022-09-27T09:51:55.824Z,506.25
2022-09-27T09:52:55.810Z,489.38
2022-09-27T09:53:55.790Z,450.00
2022-09-27T09:54:55.809Z,421.88
2022-09-27T09:55:55.781Z,410.62
2022-09-27T09:56:55.764Z,388.12
2022-09-27T09:57:55.755Z,348.75
2022-09-27T09:58:55.741Z,326.25
2022-09-27T09:59:55.729Z,326.25
2022-09-27T10:00:55.775Z,326.25
2022-09-27T10:01:55.749Z,365.62
2022-09-27T10:02:55.700Z,472.50
2022-09-27T10:03:55.682Z,500.62
2022-09-27T10:04:55.674Z,483.75
2022-09-27T10:05:55.652Z,455.62
2022-09-27T10:06:55.660Z,450.00
2022-09-27T10:07:55.632Z,472.50
2022-09-27T10:08:55.623Z,511.88
2022-09-27T10:09:55.612Z,545.62
2022-09-27T10:10:55.604Z,573.75
2022-09-27T10:11:55.611Z,579.38
2022-09-27T10:12:55.572Z,568.12
2022-09-27T10:13:55.562Z,540.00
2022-09-27T10:14:55.561Z,534.38
2022-09-27T10:15:55.545Z,523.12
2022-09-27T10:16:55.532Z,523.12
2022-09-27T10:17:55.551Z,534.38
2022-09-27T10:18:55.513Z,551.25
2022-09-27T10:19:55.497Z,545.62
2022-09-27T10:20:55.495Z,585.00
2022-09-27T10:21:55.471Z,601.88
2022-09-27T10:22:55.462Z,613.12
2022-09-27T10:23:55.504Z,613.12
2022-09-27T10:24:55.442Z,601.88
2022-09-27T10:25:55.434Z,573.75
2022-09-27T10:26:55.414Z,562.50
2022-09-27T10:27:55.442Z,568.12
2022-09-27T10:28:55.393Z,573.75
2022-09-27T10:29:55.434Z,540.00
2022-09-27T10:30:55.373Z,517.50
2022-09-27T10:31:55.403Z,511.88
2022-09-27T10:32:55.360Z,517.50
2022-09-27T10:33:55.333Z,517.50
2022-09-27T10:34:55.324Z,534.38
2022-09-27T10:35:55.332Z,568.12
2022-09-27T10:36:55.314Z,585.00
2022-09-27T10:37:55.297Z,585.00
2022-09-27T10:38:55.281Z,568.12
2022-09-27T10:39:55.264Z,562.50
2022-09-27T10:40:55.355Z,551.25
2022-09-27T10:41:55.243Z,517.50
2022-09-27T10:42:55.233Z,511.88
2022-09-27T10:43:55.223Z,523.12
2022-09-27T10:44:55.213Z,523.12
2022-09-27T10:45:55.237Z,495.00
2022-09-27T10:46:55.236Z,489.38
2022-09-27T10:47:55.176Z,478.12
2022-09-27T10:48:55.174Z,461.25
2022-09-27T10:49:55.164Z,461.25
2022-09-27T10:50:58.712Z,472.50
2022-09-27T10:51:55.128Z,500.62
2022-09-27T10:52:55.244Z,528.75
2022-09-27T10:53:55.104Z,573.75
2022-09-27T10:54:55.094Z,624.38
2022-09-27T10:55:55.084Z,675.00
2022-09-27T10:56:55.067Z,708.75
2022-09-27T10:57:55.068Z,736.88
2022-09-27T10:58:55.235Z,759.38
2022-09-27T10:59:55.043Z,770.62
2022-09-27T11:00:55.060Z,781.88
2022-09-27T11:01:55.015Z,793.12
2022-09-27T11:02:55.007Z,810.00
2022-09-27T11:03:54.996Z,838.12
2022-09-27T11:04:55.054Z,838.12
2022-09-27T11:05:54.966Z,832.50
2022-09-27T11:06:54.955Z,838.12
2022-09-27T11:07:54.946Z,843.75
2022-09-27T11:08:54.939Z,838.12
2022-09-27T11:09:54.916Z,838.12
2022-09-27T11:10:54.926Z,826.88
2022-09-27T11:11:54.897Z,826.88
2022-09-27T11:12:54.886Z,821.25
2022-09-27T11:13:54.880Z,815.62
2022-09-27T11:14:54.858Z,804.38
2022-09-27T11:15:54.911Z,804.38
2022-09-27T11:16:54.848Z,810.00
2022-09-27T11:17:54.827Z,821.25
2022-09-27T11:18:54.817Z,821.25
2022-09-27T11:19:54.807Z,826.88
2022-09-27T11:20:54.796Z,804.38
2022-09-27T11:21:54.807Z,798.75
2022-09-27T11:22:54.767Z,810.00
2022-09-27T11:23:54.765Z,793.12
2022-09-27T11:24:54.749Z,736.88
2022-09-27T11:25:54.738Z,686.25
2022-09-27T11:26:54.734Z,646.88
2022-09-27T11:27:54.738Z,618.75
2022-09-27T11:28:54.699Z,596.25
2022-09-27T11:29:54.696Z,579.38
2022-09-27T11:30:54.688Z,556.88
2022-09-27T11:31:54.714Z,596.25
2022-09-27T11:32:54.658Z,613.12
2022-09-27T11:33:54.698Z,590.62
2022-09-27T11:34:54.643Z,590.62
2022-09-27T11:35:54.639Z,607.50
2022-09-27T11:36:54.846Z,618.75
2022-09-27T11:37:54.611Z,624.38
2022-09-27T11:38:55.758Z,646.88
2022-09-27T11:39:54.608Z,669.38
2022-09-27T11:40:54.607Z,680.62
2022-09-27T11:41:54.561Z,669.38
2022-09-27T11:42:54.540Z,663.75
2022-09-27T11:43:54.540Z,658.12
2022-09-27T11:45:19.536Z,669.38
2022-09-27T11:46:15.419Z,691.88
2022-09-27T11:46:55.553Z,680.62
2022-09-27T11:47:54.642Z,658.12
2022-09-27T11:48:54.471Z,646.88
2022-09-27T11:49:54.471Z,652.50
2022-09-27T11:50:54.452Z,658.12
2022-09-27T11:51:54.463Z,646.88
2022-09-27T11:52:54.430Z,658.12
2022-09-27T11:53:54.559Z,652.50
2022-09-27T11:54:54.412Z,658.12
2022-09-27T11:55:54.401Z,652.50
2022-09-27T11:56:54.412Z,641.25
2022-09-27T11:57:54.384Z,618.75
2022-09-27T11:58:54.375Z,618.75
2022-09-27T11:59:54.364Z,607.50
2022-09-27T12:00:54.341Z,568.12
2022-09-27T12:01:54.368Z,523.12
2022-09-27T12:02:54.465Z,472.50
2022-09-27T12:03:54.321Z,461.25
2022-09-27T12:04:54.301Z,461.25
2022-09-27T12:05:58.129Z,466.88
2022-09-27T12:06:54.274Z,489.38
2022-09-27T12:07:54.272Z,500.62
2022-09-27T12:08:54.272Z,489.38
2022-09-27T12:09:54.244Z,495.00
2022-09-27T12:10:54.233Z,511.88
2022-09-27T12:11:54.220Z,517.50
2022-09-27T12:12:54.204Z,528.75
2022-09-27T12:13:54.206Z,545.62
2022-09-27T12:14:54.212Z,568.12
2022-09-27T12:15:54.228Z,601.88
2022-09-27T12:16:54.161Z,618.75
2022-09-27T12:17:54.153Z,624.38
2022-09-27T12:18:54.143Z,630.00
2022-09-27T12:19:54.137Z,630.00
2022-09-27T12:20:54.135Z,618.75
2022-09-27T12:21:54.103Z,613.12
2022-09-27T12:22:59.176Z,613.12
2022-09-27T12:23:55.084Z,618.75
2022-09-27T12:24:54.074Z,613.12
2022-09-27T12:25:54.083Z,585.00
2022-09-27T12:26:54.049Z,545.62
2022-09-27T12:27:54.039Z,523.12
2022-09-27T12:28:54.023Z,511.88
2022-09-27T12:29:54.022Z,506.25
2022-09-27T12:31:10.817Z,500.62
2022-09-27T12:31:55.032Z,495.00
2022-09-27T12:32:53.974Z,489.38
2022-09-27T12:33:53.977Z,495.00
2022-09-27T12:34:53.955Z,506.25
2022-09-27T12:35:53.953Z,528.75
2022-09-27T12:36:53.925Z,545.62
2022-09-27T12:37:53.949Z,573.75
2022-09-27T12:38:53.905Z,601.88
2022-09-27T12:39:53.896Z,630.00
2022-09-27T12:40:53.926Z,652.50
2022-09-27T12:41:53.895Z,669.38
2022-09-27T12:42:53.860Z,686.25
2022-09-27T12:43:53.888Z,703.12
2022-09-27T12:44:53.836Z,714.38
2022-09-27T12:45:53.827Z,720.00
2022-09-27T12:46:53.905Z,725.62
2022-09-27T12:47:53.805Z,731.25
2022-09-27T12:48:53.800Z,736.88
2022-09-27T12:49:56.463Z,736.88
2022-09-27T12:50:54.766Z,736.88